Time;durP1;ratioP1;P1;durP2;ratioP2;P2;SDS_P1;SDS_P2;PMS_P1;PMS_P2;Temp;Humidity;BMP_temperature;BMP_pressure;BME280_temperature;BME280_humidity;BME280_pressure;Samples;Min_cycle;Max_cycle;Signal;HPM_P1;HPM_P2
2022/07/20 00:00:34;;;;;;;4.60;4.07;;;24.00;91.50;;;;;;5033995;28;20274;-61
2022/07/20 00:03:05;;;;;;;6.47;3.90;;;24.00;91.50;;;;;;5036175;28;20710;-61
2022/07/20 00:05:33;;;;;;;4.80;3.90;;;23.80;92.00;;;;;;5051191;28;20247;-61
2022/07/20 00:08:02;;;;;;;5.40;3.93;;;23.80;91.90;;;;;;5055764;28;20239;-61
2022/07/20 00:13:16;;;;;;;5.20;3.87;;;23.60;93.00;;;;;;5035644;28;20313;-61
2022/07/20 00:15:45;;;;;;;4.70;4.20;;;23.50;93.00;;;;;;5037631;28;20265;-61
2022/07/20 00:18:15;;;;;;;5.87;4.30;;;23.40;93.30;;;;;;5052084;28;20704;-59
2022/07/20 00:20:43;;;;;;;4.60;4.10;;;23.40;93.40;;;;;;5039736;28;20737;-61
2022/07/20 00:23:11;;;;;;;5.63;3.93;;;23.30;94.00;;;;;;5055704;28;20629;-61
2022/07/20 00:25:39;;;;;;;6.50;3.93;;;23.30;94.20;;;;;;5055711;28;20667;-60
2022/07/20 00:28:07;;;;;;;4.33;3.93;;;23.20;95.00;;;;;;5041067;28;20651;-61
2022/07/20 00:30:36;;;;;;;4.80;4.30;;;23.10;95.00;;;;;;5034944;28;20244;-61
2022/07/20 00:33:04;;;;;;;4.80;3.80;;;23.00;95.30;;;;;;5035415;28;20229;-61
2022/07/20 00:35:34;;;;;;;5.40;4.13;;;23.00;96.00;;;;;;5035553;28;20717;-61
2022/07/20 00:38:02;;;;;;;5.43;3.87;;;22.90;96.20;;;;;;5051592;28;20298;-61
2022/07/20 00:40:30;;;;;;;4.50;3.80;;;22.90;96.50;;;;;;5035273;28;20753;-60
2022/07/20 00:42:58;;;;;;;5.37;3.77;;;22.80;97.70;;;;;;5035014;28;20774;-61
2022/07/20 00:45:26;;;;;;;5.40;4.33;;;22.80;98.20;;;;;;5035158;28;20266;-60
2022/07/20 00:47:54;;;;;;;6.53;4.20;;;22.70;98.40;;;;;;5035360;28;20584;-60
2022/07/20 00:50:23;;;;;;;5.77;4.33;;;22.60;99.00;;;;;;5037732;28;20239;-60
2022/07/20 00:52:52;;;;;;;6.10;4.10;;;22.60;99.60;;;;;;5052707;28;20336;-60
2022/07/20 00:55:21;;;;;;;5.23;3.90;;;22.50;99.80;;;;;;5055185;28;20321;-60
2022/07/20 00:57:49;;;;;;;5.17;3.57;;;22.50;99.90;;;;;;5054656;28;20283;-60
2022/07/20 01:00:17;;;;;;;8.43;4.13;;;22.40;99.90;;;;;;5054372;28;20650;-60
2022/07/20 01:02:46;;;;;;;4.93;4.43;;;22.40;99.90;;;;;;5054938;28;20312;-60
2022/07/20 01:05:14;;;;;;;4.73;4.27;;;22.40;99.90;;;;;;5054559;28;20651;-60
2022/07/20 01:07:43;;;;;;;6.43;4.27;;;22.30;99.90;;;;;;5054864;28;20224;-60
2022/07/20 01:10:14;;;;;;;5.30;3.97;;;22.20;99.90;;;;;;5054529;28;20626;-60
2022/07/20 01:12:46;;;;;;;5.00;3.97;;;22.20;99.90;;;;;;5053564;28;20274;-60
2022/07/20 01:15:14;;;;;;;6.17;4.10;;;22.20;99.90;;;;;;5054397;28;20240;-60
2022/07/20 01:17:43;;;;;;;5.40;4.17;;;22.10;99.90;;;;;;5054622;28;20592;-60
2022/07/20 01:20:16;;;;;;;6.93;4.30;;;22.10;99.90;;;;;;5054553;28;20286;-60
2022/07/20 01:22:46;;;;;;;4.27;3.87;;;22.00;99.90;;;;;;5054403;28;20311;-60
2022/07/20 01:25:14;;;;;;;5.20;4.00;;;22.00;99.90;;;;;;5053646;28;20225;-60
2022/07/20 01:27:43;;;;;;;5.70;4.23;;;22.00;99.90;;;;;;5045053;28;20241;-60
2022/07/20 01:30:12;;;;;;;4.77;4.20;;;21.90;99.90;;;;;;5050342;28;20315;-60
2022/07/20 01:32:40;;;;;;;6.27;4.03;;;21.90;99.90;;;;;;5054167;28;20252;-60
2022/07/20 01:35:09;;;;;;;5.53;4.13;;;21.90;99.90;;;;;;5054292;28;20216;-60
2022/07/20 01:37:37;;;;;;;5.53;4.10;;;21.90;99.90;;;;;;5053970;28;20230;-60
2022/07/20 01:40:08;;;;;;;4.70;4.23;;;21.80;99.90;;;;;;5054172;28;20557;-60
2022/07/20 01:42:36;;;;;;;4.53;4.13;;;21.80;99.90;;;;;;5053890;28;20223;-60
2022/07/20 01:45:05;;;;;;;7.27;4.40;;;21.80;99.90;;;;;;5054214;28;20237;-60
2022/07/20 01:47:33;;;;;;;4.50;4.10;;;21.80;99.90;;;;;;5054113;28;20240;-60
2022/07/20 01:50:01;;;;;;;4.93;3.90;;;21.70;99.90;;;;;;5054454;28;20271;-60
2022/07/20 01:52:29;;;;;;;5.63;4.30;;;21.70;99.90;;;;;;5053643;28;20619;-59
2022/07/20 01:54:58;;;;;;;5.03;4.20;;;21.70;99.90;;;;;;5053854;28;20679;-60
2022/07/20 01:57:27;;;;;;;4.30;3.90;;;21.70;99.90;;;;;;5053212;28;20227;-59
2022/07/20 01:59:55;;;;;;;6.60;4.30;;;21.60;99.90;;;;;;5069153;28;20233;-60
2022/07/20 02:02:23;;;;;;;6.03;4.17;;;21.50;99.90;;;;;;5053395;28;20319;-60
2022/07/20 02:04:52;;;;;;;5.37;3.83;;;21.50;99.90;;;;;;5053752;28;20228;-59
2022/07/20 02:07:20;;;;;;;6.77;4.17;;;21.60;99.90;;;;;;5053872;28;20243;-59
2022/07/20 02:09:48;;;;;;;4.47;4.07;;;21.50;99.90;;;;;;5053220;28;20224;-59
2022/07/20 02:12:16;;;;;;;4.50;4.07;;;21.50;99.90;;;;;;5053478;28;20267;-59
2022/07/20 02:14:45;;;;;;;6.13;3.83;;;21.50;99.90;;;;;;5053540;28;20743;-59
2022/07/20 02:17:13;;;;;;;7.00;3.90;;;21.50;99.90;;;;;;5053614;28;20297;-59
2022/07/20 02:19:41;;;;;;;5.27;4.17;;;21.50;99.90;;;;;;5053646;28;20751;-59
2022/07/20 02:22:12;;;;;;;4.67;4.13;;;21.50;99.90;;;;;;5053134;28;20216;-59
2022/07/20 02:24:40;;;;;;;4.47;4.03;;;21.50;99.90;;;;;;5053044;28;20331;-59
2022/07/20 02:27:08;;;;;;;3.87;3.47;;;21.50;99.90;;;;;;5053138;28;20242;-59
2022/07/20 02:29:36;;;;;;;4.37;3.53;;;21.50;99.90;;;;;;5053070;28;20365;-59
2022/07/20 02:32:06;;;;;;;3.80;3.50;;;21.50;99.90;;;;;;5052714;28;20745;-59
2022/07/20 02:34:34;;;;;;;5.67;3.70;;;21.40;99.90;;;;;;5051647;28;20232;-60
2022/07/20 02:37:03;;;;;;;4.27;3.57;;;21.40;99.90;;;;;;5053061;28;20745;-59
2022/07/20 02:39:31;;;;;;;5.93;3.63;;;21.30;99.90;;;;;;5052722;28;21256;-59
2022/07/20 02:41:59;;;;;;;6.03;4.07;;;21.30;99.90;;;;;;5052747;28;20278;-59
2022/07/20 02:44:27;;;;;;;6.83;4.00;;;21.30;99.90;;;;;;5052610;28;20266;-59
2022/07/20 02:46:55;;;;;;;5.13;3.43;;;21.40;99.90;;;;;;5053182;28;20275;-60
2022/07/20 02:49:25;;;;;;;5.03;3.90;;;21.40;99.90;;;;;;5052784;28;20263;-59
2022/07/20 02:51:53;;;;;;;5.07;3.90;;;21.40;99.90;;;;;;5052877;28;20324;-59
2022/07/20 02:54:23;;;;;;;4.07;3.63;;;21.40;99.90;;;;;;5053067;28;20569;-59
2022/07/20 02:56:51;;;;;;;6.27;3.70;;;21.50;99.90;;;;;;5052530;28;20227;-59
2022/07/20 02:59:20;;;;;;;4.10;3.57;;;21.60;99.90;;;;;;5052518;28;20231;-59
2022/07/20 03:01:48;;;;;;;5.33;3.63;;;21.60;99.90;;;;;;5051703;28;20318;-59
2022/07/20 03:04:16;;;;;;;5.27;3.73;;;21.60;99.90;;;;;;5052689;28;20721;-60
2022/07/20 03:06:46;;;;;;;5.03;3.70;;;21.60;99.90;;;;;;5052386;28;20243;-60
2022/07/20 03:09:14;;;;;;;4.57;3.97;;;21.70;99.90;;;;;;5052498;28;20319;-59
2022/07/20 03:11:42;;;;;;;5.27;3.90;;;21.70;99.90;;;;;;5052646;28;20258;-60
2022/07/20 03:14:10;;;;;;;3.83;3.23;;;21.60;99.90;;;;;;5052716;28;20769;-60
2022/07/20 03:16:38;;;;;;;5.03;3.40;;;21.60;99.90;;;;;;5052681;28;20790;-60
2022/07/20 03:19:06;;;;;;;4.57;3.80;;;21.60;99.90;;;;;;5052744;28;20229;-59
2022/07/20 03:21:40;;;;;;;5.93;3.60;;;21.60;99.90;;;;;;5052546;28;20641;-59
2022/07/20 03:24:10;;;;;;;4.43;4.00;;;21.60;99.90;;;;;;5052702;28;20694;-60
2022/07/20 03:26:38;;;;;;;6.03;3.93;;;21.60;99.90;;;;;;5053036;28;20326;-60
2022/07/20 03:29:06;;;;;;;5.27;3.50;;;21.60;99.90;;;;;;5052395;28;20583;-59
2022/07/20 03:31:34;;;;;;;5.53;3.90;;;21.60;99.90;;;;;;5051514;28;20266;-59
2022/07/20 03:34:02;;;;;;;4.70;3.90;;;21.60;99.90;;;;;;5051244;28;20235;-59
2022/07/20 03:36:30;;;;;;;5.30;3.83;;;21.60;99.90;;;;;;5055007;28;20259;-59
2022/07/20 03:38:58;;;;;;;6.80;3.70;;;21.60;99.90;;;;;;5055811;28;20231;-59
2022/07/20 03:41:28;;;;;;;4.20;3.80;;;21.60;99.90;;;;;;5056010;28;20220;-59
2022/07/20 03:43:56;;;;;;;5.10;3.70;;;21.70;99.90;;;;;;5056404;28;20316;-59
2022/07/20 03:46:24;;;;;;;7.47;4.13;;;21.70;99.90;;;;;;5056697;28;20255;-59
2022/07/20 03:48:53;;;;;;;7.37;4.70;;;21.80;99.90;;;;;;5056418;28;20224;-58
2022/07/20 03:51:22;;;;;;;5.00;4.00;;;21.80;99.90;;;;;;5056347;28;20305;-58
2022/07/20 03:53:51;;;;;;;6.77;4.40;;;21.80;99.90;;;;;;5056152;28;20303;-58
2022/07/20 03:56:19;;;;;;;6.00;4.30;;;21.80;99.90;;;;;;5056239;28;20232;-58
2022/07/20 03:58:49;;;;;;;5.27;3.87;;;21.80;99.90;;;;;;5049372;28;20580;-58
2022/07/20 04:01:17;;;;;;;7.57;3.90;;;21.90;99.90;;;;;;5055822;28;20259;-58
2022/07/20 04:03:46;;;;;;;7.23;4.17;;;22.00;99.90;;;;;;5055016;28;20759;-58
2022/07/20 04:06:14;;;;;;;4.33;3.67;;;22.00;99.90;;;;;;5055643;28;20220;-58
2022/07/20 04:08:42;;;;;;;7.30;4.17;;;22.00;99.90;;;;;;5055370;28;20234;-58
2022/07/20 04:11:10;;;;;;;7.93;3.87;;;22.00;99.90;;;;;;5055305;28;20236;-58
2022/07/20 04:13:38;;;;;;;6.50;4.00;;;22.10;99.90;;;;;;5052932;28;20219;-58
2022/07/20 04:16:08;;;;;;;5.50;4.20;;;22.20;99.90;;;;;;5054515;28;20251;-58
2022/07/20 04:18:36;;;;;;;5.93;3.67;;;22.20;99.90;;;;;;5053152;28;20219;-58
2022/07/20 04:21:05;;;;;;;4.97;4.00;;;22.20;99.90;;;;;;5054939;28;20228;-58
2022/07/20 04:23:33;;;;;;;5.87;3.80;;;22.30;99.90;;;;;;5055020;28;20314;-58
2022/07/20 04:26:01;;;;;;;4.87;4.07;;;22.40;99.90;;;;;;5052536;28;20231;-58
2022/07/20 04:28:29;;;;;;;6.57;4.00;;;22.40;99.90;;;;;;5056171;28;20319;-58
2022/07/20 04:30:57;;;;;;;4.50;3.47;;;22.50;99.90;;;;;;5054471;28;20652;-58
2022/07/20 04:33:27;;;;;;;4.93;3.67;;;22.60;99.90;;;;;;5054501;28;20311;-58
2022/07/20 04:35:55;;;;;;;5.23;3.93;;;22.70;99.90;;;;;;5055301;28;20252;-59
2022/07/20 04:38:24;;;;;;;6.30;3.77;;;22.70;99.90;;;;;;5054722;28;20223;-59
2022/07/20 04:40:52;;;;;;;4.67;3.70;;;22.70;99.90;;;;;;5054829;28;20225;-59
2022/07/20 04:43:20;;;;;;;9.23;4.07;;;22.80;99.90;;;;;;5052452;28;20314;-59
2022/07/20 04:45:48;;;;;;;4.27;3.83;;;22.90;99.90;;;;;;5054051;28;20260;-59
2022/07/20 04:48:24;;;;;;;5.20;4.00;;;22.90;99.90;;;;;;5048922;28;20334;-59
2022/07/20 04:50:53;;;;;;;4.97;3.73;;;23.00;99.90;;;;;;5049825;28;20232;-58
2022/07/20 04:53:22;;;;;;;4.70;4.20;;;23.00;99.90;;;;;;5058110;28;20231;-59
2022/07/20 04:55:50;;;;;;;5.13;3.80;;;23.10;99.90;;;;;;5043049;28;20217;-59
2022/07/20 04:58:18;;;;;;;6.10;4.20;;;23.20;99.90;;;;;;5057855;28;20230;-60
2022/07/20 05:00:46;;;;;;;5.77;4.30;;;23.40;99.90;;;;;;5053341;28;20236;-60
2022/07/20 05:03:14;;;;;;;6.43;4.37;;;23.50;99.90;;;;;;5058137;28;20322;-60
2022/07/20 05:05:42;;;;;;;9.43;4.50;;;23.60;99.90;;;;;;5062226;28;20728;-60
2022/07/20 05:08:16;;;;;;;8.27;4.80;;;23.70;99.90;;;;;;5054671;28;20561;-60
2022/07/20 05:10:44;;;;;;;6.20;4.40;;;23.90;99.90;;;;;;5055143;28;20268;-59
2022/07/20 05:13:12;;;;;;;5.80;4.57;;;24.10;99.90;;;;;;5054461;28;20221;-60
2022/07/20 05:15:40;;;;;;;6.63;4.57;;;24.10;99.90;;;;;;5053382;28;20743;-61
2022/07/20 05:18:09;;;;;;;6.13;4.10;;;24.20;99.90;;;;;;5052996;28;20217;-60
2022/07/20 05:20:37;;;;;;;10.23;4.60;;;24.40;99.90;;;;;;5054723;28;20309;-61
2022/07/20 05:23:05;;;;;;;6.17;3.93;;;24.60;99.90;;;;;;5057211;28;20221;-61
2022/07/20 05:25:38;;;;;;;6.47;4.20;;;24.80;99.90;;;;;;5059367;28;20307;-61
2022/07/20 05:28:07;;;;;;;4.93;4.00;;;24.90;99.90;;;;;;5055858;28;20226;-61
2022/07/20 05:30:35;;;;;;;8.10;4.50;;;25.00;99.90;;;;;;5053524;28;20263;-61
2022/07/20 05:33:04;;;;;;;7.63;4.20;;;25.20;99.90;;;;;;5054955;28;20261;-61
2022/07/20 05:35:32;;;;;;;4.43;4.03;;;25.40;99.90;;;;;;5054317;28;20231;-61
2022/07/20 05:38:01;;;;;;;4.53;4.10;;;25.60;99.90;;;;;;5054891;28;20690;-61
2022/07/20 05:40:29;;;;;;;6.77;4.17;;;25.60;99.50;;;;;;5052455;28;20243;-61
2022/07/20 05:42:59;;;;;;;6.47;4.23;;;25.80;99.00;;;;;;5061239;28;20243;-61
2022/07/20 05:45:27;;;;;;;6.23;4.13;;;26.00;98.60;;;;;;5055518;28;20676;-61
2022/07/20 05:47:55;;;;;;;5.37;4.20;;;26.20;98.60;;;;;;5056128;28;20712;-61
2022/07/20 05:50:25;;;;;;;4.37;3.97;;;26.40;98.20;;;;;;5055098;28;20226;-62
2022/07/20 05:52:54;;;;;;;7.13;4.37;;;26.60;97.50;;;;;;5058351;28;20332;-62
2022/07/20 05:55:22;;;;;;;8.33;4.90;;;26.50;97.70;;;;;;5056309;28;20227;-62
2022/07/20 05:57:50;;;;;;;6.57;4.47;;;26.60;97.10;;;;;;5055186;28;20699;-62
2022/07/20 06:00:20;;;;;;;8.43;4.70;;;26.50;96.90;;;;;;5052957;28;20223;-62
2022/07/20 06:02:48;;;;;;;4.97;4.50;;;26.50;96.90;;;;;;5060295;28;20232;-62
2022/07/20 06:05:16;;;;;;;11.07;4.90;;;26.80;97.30;;;;;;5053507;28;20698;-62
2022/07/20 06:07:45;;;;;;;8.70;4.50;;;26.80;96.60;;;;;;5053147;28;20237;-62
2022/07/20 06:10:13;;;;;;;6.17;4.43;;;26.90;96.70;;;;;;5060208;28;20225;-62
2022/07/20 06:12:42;;;;;;;6.30;4.47;;;27.10;96.80;;;;;;5061473;28;20257;-63
2022/07/20 06:15:11;;;;;;;6.53;4.30;;;27.10;96.30;;;;;;5052777;28;20313;-62
2022/07/20 06:17:41;;;;;;;8.67;4.47;;;27.20;96.50;;;;;;5052967;28;20304;-63
2022/07/20 06:20:11;;;;;;;4.30;3.90;;;27.40;96.40;;;;;;5057404;28;20240;-63
2022/07/20 06:22:40;;;;;;;6.37;4.50;;;27.40;96.00;;;;;;5045517;28;20234;-63
2022/07/20 06:25:10;;;;;;;6.57;4.27;;;27.80;96.30;;;;;;5053044;28;20283;-63
2022/07/20 06:27:38;;;;;;;6.77;4.30;;;27.90;95.40;;;;;;5043792;28;20314;-63
2022/07/20 06:30:08;;;;;;;5.90;4.20;;;28.10;95.80;;;;;;5053169;28;20224;-63
2022/07/20 06:32:36;;;;;;;7.57;4.40;;;27.90;95.30;;;;;;5044060;28;20247;-63
2022/07/20 06:35:07;;;;;;;5.50;4.33;;;27.90;95.50;;;;;;5052371;28;20263;-63
2022/07/20 06:37:35;;;;;;;8.80;4.77;;;28.00;95.70;;;;;;5053272;28;20236;-63
2022/07/20 06:40:04;;;;;;;5.63;3.97;;;28.40;95.30;;;;;;5053217;28;20734;-64
2022/07/20 06:42:32;;;;;;;8.20;4.00;;;28.50;94.90;;;;;;5053078;28;20283;-64
2022/07/20 06:45:01;;;;;;;7.23;4.20;;;28.70;95.20;;;;;;5048631;28;20262;-64
2022/07/20 06:47:29;;;;;;;10.80;4.60;;;28.80;94.90;;;;;;5052424;28;20327;-64
2022/07/20 06:49:57;;;;;;;7.80;4.40;;;29.10;94.20;;;;;;5052706;28;20654;-64
2022/07/20 06:52:32;;;;;;;11.17;4.13;;;29.00;94.10;;;;;;5060507;28;20255;-64
2022/07/20 06:55:00;;;;;;;7.90;3.93;;;29.10;94.80;;;;;;5052532;28;20231;-66
2022/07/20 06:57:29;;;;;;;12.80;4.90;;;29.30;94.60;;;;;;5052289;28;20220;-65
2022/07/20 06:59:57;;;;;;;8.97;4.60;;;29.30;94.30;;;;;;5058256;28;20251;-65
2022/07/20 07:02:25;;;;;;;7.03;4.30;;;29.60;93.80;;;;;;5053282;28;20267;-66
2022/07/20 07:04:53;;;;;;;7.80;3.97;;;29.90;94.10;;;;;;5057114;28;20223;-66
2022/07/20 07:07:21;;;;;;;6.03;3.77;;;30.20;93.40;;;;;;5053210;28;20216;-65
2022/07/20 07:09:51;;;;;;;9.57;4.10;;;30.30;93.00;;;;;;5050921;28;20235;-66
2022/07/20 07:12:19;;;;;;;6.73;4.27;;;30.60;93.00;;;;;;5060879;28;20224;-66
2022/07/20 07:14:47;;;;;;;6.33;4.00;;;30.70;92.00;;;;;;5054392;28;20226;-66
2022/07/20 07:17:23;;;;;;;7.30;3.97;;;31.00;92.80;;;;;;5051438;28;20236;-63
2022/07/20 07:19:51;;;;;;;7.87;3.83;;;31.10;92.30;;;;;;5059586;28;20720;-67
2022/07/20 07:22:20;;;;;;;8.97;4.07;;;31.30;91.50;;;;;;5053030;28;20770;-67
2022/07/20 07:24:48;;;;;;;5.80;3.70;;;31.60;91.60;;;;;;5052391;28;20255;-66
2022/07/20 07:27:18;;;;;;;7.73;3.63;;;31.90;91.80;;;;;;5052254;28;20223;-67
2022/07/20 07:29:46;;;;;;;6.20;3.30;;;32.30;90.50;;;;;;5052337;28;20297;-67
2022/07/20 07:32:14;;;;;;;6.50;3.80;;;32.40;88.40;;;;;;5051417;28;20259;-67
2022/07/20 07:34:42;;;;;;;6.90;3.90;;;32.70;88.40;;;;;;5052385;28;20253;-67
2022/07/20 07:37:11;;;;;;;7.47;3.70;;;32.90;85.60;;;;;;5052699;28;20265;-67
2022/07/20 07:39:39;;;;;;;3.37;3.00;;;32.90;88.70;;;;;;5044584;28;20324;-68
2022/07/20 07:42:08;;;;;;;4.53;3.30;;;33.10;87.10;;;;;;5053475;28;20252;-68
2022/07/20 07:44:39;;;;;;;5.97;3.80;;;33.40;87.00;;;;;;5050553;28;20568;-67
2022/07/20 07:47:07;;;;;;;5.83;3.43;;;33.40;85.60;;;;;;5051985;28;20318;-67
2022/07/20 07:49:35;;;;;;;5.03;3.73;;;33.60;85.10;;;;;;5051172;28;20255;-69
2022/07/20 07:52:04;;;;;;;7.57;3.70;;;33.90;85.10;;;;;;5052499;28;20278;-68
2022/07/20 07:54:32;;;;;;;8.13;3.63;;;34.00;83.50;;;;;;5052552;28;20318;-68
2022/07/20 07:57:00;;;;;;;5.50;3.57;;;33.90;83.00;;;;;;5061821;28;20263;-68
2022/07/20 07:59:29;;;;;;;6.17;3.50;;;34.00;83.60;;;;;;5053042;28;20612;-67
2022/07/20 08:02:02;;;;;;;6.37;3.27;;;34.30;84.40;;;;;;5051881;28;20235;-68
2022/07/20 08:04:30;;;;;;;5.57;3.90;;;34.60;84.40;;;;;;5051005;28;20226;-68
2022/07/20 08:06:58;;;;;;;6.03;3.50;;;34.70;82.30;;;;;;5052373;28;20254;-68
2022/07/20 08:09:27;;;;;;;5.87;3.23;;;34.50;80.00;;;;;;5052009;28;20235;-67
2022/07/20 08:11:55;;;;;;;7.57;3.60;;;35.00;82.80;;;;;;5056848;28;20285;-67
2022/07/20 08:14:23;;;;;;;7.23;3.83;;;35.00;77.80;;;;;;5059701;28;20298;-68
2022/07/20 08:16:51;;;;;;;8.27;3.93;;;35.10;80.20;;;;;;5052190;28;20256;-68
2022/07/20 08:19:21;;;;;;;5.47;4.03;;;35.00;79.70;;;;;;5052900;28;20223;-68
2022/07/20 08:21:49;;;;;;;6.77;3.70;;;35.00;78.10;;;;;;5052102;28;20326;-68
2022/07/20 08:24:17;;;;;;;7.87;4.03;;;35.00;77.60;;;;;;5051611;28;20291;-69
2022/07/20 08:26:45;;;;;;;9.93;4.03;;;35.10;76.30;;;;;;5058250;28;20310;-68
2022/07/20 08:29:13;;;;;;;7.07;3.90;;;35.50;78.50;;;;;;5055784;28;20236;-68
2022/07/20 08:31:41;;;;;;;7.33;3.97;;;35.50;76.50;;;;;;5053745;28;20256;-68
2022/07/20 08:34:10;;;;;;;5.40;3.90;;;35.70;78.00;;;;;;5053627;28;20630;-68
2022/07/20 08:36:39;;;;;;;3.93;3.53;;;35.80;78.40;;;;;;5061832;28;20262;-70
2022/07/20 08:39:07;;;;;;;5.07;3.20;;;36.00;79.80;;;;;;5064073;28;20239;-67
2022/07/20 08:41:36;;;;;;;6.17;3.60;;;36.60;77.60;;;;;;5055282;28;20644;-69
2022/07/20 08:44:04;;;;;;;6.00;3.93;;;36.90;77.70;;;;;;5058621;28;20283;-70
2022/07/20 08:46:35;;;;;;;5.90;3.63;;;36.80;75.50;;;;;;5054542;28;20267;-69
2022/07/20 08:49:03;;;;;;;6.93;3.57;;;37.00;76.50;;;;;;5055582;28;20231;-70
2022/07/20 08:51:31;;;;;;;5.53;3.53;;;37.10;75.30;;;;;;5061196;28;20235;-71
2022/07/20 08:54:01;;;;;;;7.40;3.57;;;37.20;75.00;;;;;;5058402;28;20684;-69
2022/07/20 08:56:29;;;;;;;6.77;3.90;;;37.40;75.20;;;;;;5056974;28;20314;-70
2022/07/20 08:58:58;;;;;;;8.63;3.50;;;37.50;74.90;;;;;;5057758;28;20228;-71
2022/07/20 09:01:27;;;;;;;3.97;3.10;;;37.60;73.70;;;;;;5065512;28;20230;-67
2022/07/20 09:04:09;;;;;;;5.90;3.60;;;37.90;73.90;;;;;;5057845;28;20226;-74
2022/07/20 09:06:47;;;;;;;4.60;3.53;;;38.40;72.60;;;;;;5060181;28;20234;-69
2022/07/20 09:09:18;;;;;;;6.53;3.67;;;38.60;73.60;;;;;;5063819;28;20230;-68
2022/07/20 09:11:47;;;;;;;6.77;3.17;;;38.70;72.80;;;;;;5070570;28;20253;-67
2022/07/20 09:14:37;;;;;;;5.27;3.50;;;38.50;70.90;;;;;;5071225;28;20235;-72
2022/07/20 09:17:22;;;;;;;5.87;3.67;;;38.70;72.80;;;;;;5056817;28;20642;-69
2022/07/20 09:19:58;;;;;;;4.93;3.30;;;39.10;69.90;;;;;;5062015;28;20222;-68
2022/07/20 09:22:32;;;;;;;9.73;3.40;;;39.50;72.60;;;;;;5068806;28;20234;-73
2022/07/20 09:25:13;;;;;;;4.43;3.20;;;39.50;70.20;;;;;;5064218;28;20293;-70
2022/07/20 09:27:42;;;;;;;4.17;3.47;;;39.50;69.40;;;;;;5065852;28;20326;-70
2022/07/20 09:30:12;;;;;;;4.57;3.33;;;39.40;68.20;;;;;;5061500;28;20260;-70
2022/07/20 09:32:52;;;;;;;5.43;3.27;;;39.40;68.80;;;;;;5055169;28;20282;-72
2022/07/20 09:35:22;;;;;;;4.00;3.13;;;40.00;68.90;;;;;;5057143;28;20251;-70
2022/07/20 09:37:58;;;;;;;5.70;3.40;;;40.10;67.60;;;;;;5056468;28;20310;-70
2022/07/20 09:40:29;;;;;;;6.23;3.03;;;40.20;66.60;;;;;;5056690;28;20243;-69
2022/07/20 09:42:57;;;;;;;4.30;2.93;;;40.30;67.40;;;;;;5055845;28;20277;-72
2022/07/20 09:45:27;;;;;;;5.07;3.00;;;40.30;66.50;;;;;;5056470;28;20279;-67
2022/07/20 09:48:13;;;;;;;5.00;2.90;;;40.10;66.00;;;;;;5056170;28;20224;-68
2022/07/20 09:50:43;;;;;;;9.33;3.30;;;40.20;66.40;;;;;;5054896;28;20220;-68
2022/07/20 09:53:13;;;;;;;6.17;3.57;;;40.40;63.80;;;;;;5056940;28;20695;-67
2022/07/20 09:55:42;;;;;;;4.43;3.30;;;40.40;64.20;;;;;;5054414;28;20227;-67
2022/07/20 09:58:11;;;;;;;6.73;2.90;;;40.80;65.20;;;;;;5057078;28;20259;-67
2022/07/20 10:00:39;;;;;;;6.23;3.40;;;40.80;60.80;;;;;;5057450;28;20265;-67
2022/07/20 10:03:15;;;;;;;3.93;3.00;;;40.80;61.20;;;;;;5057091;28;20228;-66
2022/07/20 10:05:44;;;;;;;6.07;3.33;;;40.60;62.90;;;;;;5056304;28;20750;-66
2022/07/20 10:08:13;;;;;;;7.13;2.97;;;40.60;62.20;;;;;;5056167;28;20230;-66
2022/07/20 10:10:43;;;;;;;4.43;3.17;;;40.80;62.50;;;;;;5059478;28;20224;-68
2022/07/20 10:13:11;;;;;;;6.83;3.17;;;41.50;61.70;;;;;;5057581;28;20248;-66
2022/07/20 10:15:49;;;;;;;5.30;3.27;;;41.60;61.00;;;;;;5058198;28;20241;-66
2022/07/20 10:18:18;;;;;;;7.13;2.90;;;41.20;60.00;;;;;;5051630;28;20232;-67
2022/07/20 10:20:49;;;;;;;5.03;3.30;;;41.10;60.20;;;;;;5053027;28;20736;-66
2022/07/20 10:23:39;;;;;;;5.33;3.30;;;41.10;58.70;;;;;;5051970;28;20765;-66
2022/07/20 10:26:25;;;;;;;4.27;2.77;;;41.10;59.40;;;;;;5052664;28;20263;-66
2022/07/20 10:29:02;;;;;;;4.77;2.90;;;41.40;59.20;;;;;;5057370;28;20231;-66
2022/07/20 10:31:49;;;;;;;3.53;3.20;;;41.80;59.00;;;;;;5059042;28;20727;-66
2022/07/20 10:34:35;;;;;;;6.43;3.10;;;42.00;59.20;;;;;;5046392;28;20713;-66
2022/07/20 10:37:31;;;;;;;5.57;3.27;;;41.70;58.00;;;;;;5057823;28;20266;-66
2022/07/20 10:40:11;;;;;;;5.30;3.07;;;41.90;60.10;;;;;;5046892;28;20230;-66
2022/07/20 10:42:42;;;;;;;5.00;3.20;;;42.10;58.20;;;;;;5054097;28;20626;-66
2022/07/20 10:45:33;;;;;;;5.73;3.00;;;42.20;57.20;;;;;;5043644;28;20260;-65
2022/07/20 10:48:17;;;;;;;4.63;3.47;;;42.00;57.40;;;;;;5051840;28;20272;-66
2022/07/20 10:50:49;;;;;;;3.93;2.87;;;42.00;55.80;;;;;;5052105;28;20588;-66
2022/07/20 10:53:39;;;;;;;4.23;3.27;;;42.30;57.30;;;;;;5057180;28;20638;-67
2022/07/20 10:56:10;;;;;;;6.80;3.07;;;42.80;57.60;;;;;;5048676;28;20242;-67
2022/07/20 10:58:43;;;;;;;6.63;3.20;;;42.90;55.60;;;;;;5057589;28;20239;-67
2022/07/20 11:01:12;;;;;;;7.50;3.37;;;43.00;55.50;;;;;;5049265;28;20266;-67
2022/07/20 11:03:44;;;;;;;4.57;2.97;;;42.70;54.50;;;;;;5061732;28;20653;-66
2022/07/20 11:06:14;;;;;;;5.47;3.33;;;42.40;51.60;;;;;;5046675;28;20227;-67
2022/07/20 11:08:44;;;;;;;4.83;3.30;;;42.00;54.00;;;;;;5055334;28;20243;-66
2022/07/20 11:11:16;;;;;;;4.87;3.10;;;41.90;53.70;;;;;;5050384;28;20237;-67
2022/07/20 11:13:47;;;;;;;7.37;3.17;;;41.90;53.90;;;;;;5059252;28;20251;-66
2022/07/20 11:16:19;;;;;;;5.20;3.03;;;41.70;52.50;;;;;;5056390;28;20222;-67
2022/07/20 11:18:47;;;;;;;5.87;3.40;;;41.40;51.90;;;;;;5051546;28;20579;-67
2022/07/20 11:21:16;;;;;;;4.83;3.10;;;41.40;52.00;;;;;;5062273;28;20876;-67
2022/07/20 11:23:46;;;;;;;5.47;3.27;;;41.80;53.20;;;;;;5052638;28;20394;-66
2022/07/20 11:26:16;;;;;;;7.00;3.37;;;41.60;53.00;;;;;;5059749;28;20255;-67
2022/07/20 11:28:47;;;;;;;5.57;3.00;;;41.40;53.10;;;;;;5060948;28;20329;-67
2022/07/20 11:31:18;;;;;;;5.63;3.27;;;41.60;52.20;;;;;;5046371;28;20227;-67
2022/07/20 11:33:48;;;;;;;6.80;3.13;;;41.60;52.10;;;;;;5051326;28;20236;-67
2022/07/20 11:36:18;;;;;;;7.83;3.50;;;41.90;52.10;;;;;;5057585;28;20310;-67
2022/07/20 11:38:49;;;;;;;4.30;2.97;;;42.10;51.00;;;;;;5057943;28;20231;-66
2022/07/20 11:41:21;;;;;;;3.83;3.30;;;42.60;51.40;;;;;;5049904;28;20219;-67
2022/07/20 11:43:52;;;;;;;5.67;3.03;;;42.80;52.10;;;;;;5059469;28;20298;-67
2022/07/20 11:46:22;;;;;;;5.32;3.30;;;42.90;51.40;;;;;;5059627;28;20727;-67
2022/07/20 11:48:55;;;;;;;9.65;3.28;;;43.00;51.60;;;;;;5051922;28;20228;-67
2022/07/20 11:51:51;;;;;;;3.83;2.70;;;42.90;49.20;;;;;;5054099;28;20248;-67
2022/07/20 11:54:21;;;;;;;3.10;2.80;;;42.50;49.00;;;;;;5045276;28;20252;-67
2022/07/20 11:56:50;;;;;;;7.77;3.00;;;42.00;49.60;;;;;;5065544;28;20650;-67
2022/07/20 11:59:21;;;;;;;5.97;2.60;;;42.00;50.80;;;;;;5057010;28;20231;-67
2022/07/20 12:01:51;;;;;;;4.83;3.07;;;42.00;50.10;;;;;;5063368;28;20231;-67
2022/07/20 12:04:21;;;;;;;5.67;2.97;;;41.70;50.00;;;;;;5055352;28;20234;-67
2022/07/20 12:06:52;;;;;;;7.40;2.70;;;41.60;49.90;;;;;;5056177;28;20541;-67
2022/07/20 12:09:22;;;;;;;6.83;2.90;;;41.10;48.80;;;;;;5052181;28;20243;-67
2022/07/20 12:11:56;;;;;;;6.03;2.90;;;41.00;50.00;;;;;;5055443;28;20256;-67
2022/07/20 12:14:31;;;;;;;2.90;2.57;;;40.80;49.60;;;;;;5052191;28;20680;-67
2022/07/20 12:17:22;;;;;;;4.97;2.93;;;40.80;50.30;;;;;;5057347;28;20299;-67
2022/07/20 12:19:53;;;;;;;7.23;2.93;;;40.90;50.20;;;;;;5056066;28;20328;-67
2022/07/20 12:22:23;;;;;;;3.53;2.80;;;40.80;50.50;;;;;;5058498;28;20866;-67
2022/07/20 12:24:53;;;;;;;6.33;3.10;;;40.70;48.60;;;;;;5072626;28;20227;-67
2022/07/20 12:27:23;;;;;;;9.20;2.83;;;40.40;49.60;;;;;;5061370;28;20242;-67
2022/07/20 12:29:53;;;;;;;8.10;3.10;;;40.30;49.70;;;;;;5055360;28;20307;-67
2022/07/20 12:32:31;;;;;;;3.43;2.80;;;40.10;50.70;;;;;;5055468;28;20234;-66
2022/07/20 12:35:00;;;;;;;3.87;2.60;;;40.00;48.40;;;;;;5054707;28;20747;-66
2022/07/20 12:37:51;;;;;;;6.87;2.70;;;40.00;50.30;;;;;;5054036;28;20228;-67
2022/07/20 12:40:33;;;;;;;5.20;3.00;;;40.00;51.70;;;;;;5062308;28;20710;-66
2022/07/20 12:43:01;;;;;;;3.27;2.70;;;40.10;51.40;;;;;;5059004;28;20303;-67
2022/07/20 12:45:31;;;;;;;3.73;2.53;;;39.90;49.40;;;;;;5051329;28;20223;-67
2022/07/20 12:47:59;;;;;;;6.47;2.83;;;39.70;50.30;;;;;;5055165;28;20226;-67
2022/07/20 12:50:35;;;;;;;7.67;2.97;;;39.80;49.80;;;;;;5054236;28;20691;-67
2022/07/20 12:53:03;;;;;;;6.23;3.00;;;39.60;51.00;;;;;;5054099;28;20240;-66
2022/07/20 12:55:32;;;;;;;5.40;2.67;;;39.70;50.00;;;;;;5058841;28;20730;-67
2022/07/20 12:58:00;;;;;;;4.53;2.67;;;39.40;49.50;;;;;;5058290;28;20311;-65
2022/07/20 13:00:28;;;;;;;4.10;2.53;;;39.40;49.30;;;;;;5057769;28;20227;-66
2022/07/20 13:02:57;;;;;;;5.63;2.60;;;39.30;49.60;;;;;;5055825;28;20267;-67